Time;durP1;ratioP1;P1;durP2;ratioP2;P2;SDS_P1;SDS_P2;PMS_P1;PMS_P2;Temp;Humidity;BMP_temperature;BMP_pressure;BME280_temperature;BME280_humidity;BME280_pressure;Samples;Min_cycle;Max_cycle;Signal;HPM_P1;HPM_P2
2023/06/14 00:00:11;;;;;;;10.07;5.40;;;;;;;;;;5014895;28;20038;-73
2023/06/14 00:02:38;;;;;;;7.78;4.97;;;;;;;;;;5013326;28;20437;-73
2023/06/14 00:05:05;;;;;;;14.75;5.72;;;;;;;;;;5013702;28;20042;-73
2023/06/14 00:07:34;;;;;;;9.82;5.20;;;;;;;;;;5013665;28;20042;-73
2023/06/14 00:09:59;;;;;;;8.98;5.07;;;;;;;;;;5013191;28;20401;-73
2023/06/14 00:12:25;;;;;;;11.02;5.05;;;;;;;;;;5014839;28;20037;-73
2023/06/14 00:14:50;;;;;;;12.82;5.30;;;;;;;;;;5014263;28;20038;-73
2023/06/14 00:17:16;;;;;;;7.78;5.70;;;;;;;;;;5014499;28;20140;-73
2023/06/14 00:19:41;;;;;;;11.43;4.88;;;;;;;;;;5014873;28;20033;-73
2023/06/14 00:22:07;;;;;;;10.13;5.45;;;;;;;;;;5014567;28;20063;-73
2023/06/14 00:24:32;;;;;;;7.45;5.05;;;;;;;;;;5014526;28;20492;-73
2023/06/14 00:26:57;;;;;;;9.18;5.22;;;;;;;;;;5014391;28;20029;-73
2023/06/14 00:29:23;;;;;;;8.52;5.40;;;;;;;;;;5014165;28;20034;-73
2023/06/14 00:31:48;;;;;;;11.98;5.28;;;;;;;;;;5013189;28;20042;-72
2023/06/14 00:34:14;;;;;;;9.48;4.93;;;;;;;;;;5013436;28;20040;-73
2023/06/14 00:36:39;;;;;;;8.00;5.50;;;;;;;;;;5014006;28;20497;-73
2023/06/14 00:39:04;;;;;;;9.48;5.88;;;;;;;;;;5014242;28;20045;-72
2023/06/14 00:41:30;;;;;;;8.93;5.60;;;;;;;;;;5011437;28;20049;-73
2023/06/14 00:43:56;;;;;;;7.50;5.22;;;;;;;;;;5014090;28;20037;-73
2023/06/14 00:46:22;;;;;;;7.88;5.70;;;;;;;;;;5014031;28;20066;-73
2023/06/14 00:48:48;;;;;;;7.40;5.05;;;;;;;;;;5014109;28;20054;-73
2023/06/14 00:51:13;;;;;;;8.80;5.38;;;;;;;;;;5006800;28;20513;-73
2023/06/14 00:53:39;;;;;;;8.80;5.40;;;;;;;;;;5008109;28;20042;-73
2023/06/14 00:56:05;;;;;;;12.15;5.70;;;;;;;;;;5014068;28;20045;-73
2023/06/14 00:58:31;;;;;;;10.02;5.43;;;;;;;;;;5013770;28;20702;-73
2023/06/14 01:00:57;;;;;;;8.95;5.45;;;;;;;;;;5010822;28;20623;-73
2023/06/14 01:03:23;;;;;;;12.82;5.32;;;;;;;;;;4997958;28;20088;-73
2023/06/14 01:05:54;;;;;;;7.95;5.22;;;;;;;;;;5012691;28;20038;-73
2023/06/14 01:08:32;;;;;;;8.45;5.07;;;;;;;;;;5007724;28;20057;-73
2023/06/14 01:11:04;;;;;;;12.48;5.18;;;;;;;;;;5012077;28;20497;-73
2023/06/14 01:13:33;;;;;;;8.52;5.55;;;;;;;;;;5012162;28;20042;-73
2023/06/14 01:15:59;;;;;;;8.05;4.57;;;;;;;;;;5012402;28;20529;-73
2023/06/14 01:18:25;;;;;;;9.77;5.00;;;;;;;;;;5012373;28;20036;-73
2023/06/14 01:20:55;;;;;;;7.50;4.85;;;;;;;;;;5013657;28;20151;-73
2023/06/14 01:23:22;;;;;;;5.95;4.45;;;;;;;;;;5009406;28;20371;-73
2023/06/14 01:25:52;;;;;;;8.10;4.22;;;;;;;;;;5012407;28;20084;-73
2023/06/14 01:28:19;;;;;;;14.55;4.90;;;;;;;;;;5002043;28;20049;-73
2023/06/14 01:30:47;;;;;;;7.65;4.35;;;;;;;;;;5012100;28;20037;-73
2023/06/14 01:33:18;;;;;;;7.68;4.68;;;;;;;;;;5012420;28;20061;-73
2023/06/14 01:35:46;;;;;;;8.20;4.50;;;;;;;;;;5006227;28;20038;-73
2023/06/14 01:38:13;;;;;;;11.55;4.25;;;;;;;;;;5009635;28;20092;-72
2023/06/14 01:40:39;;;;;;;10.90;4.55;;;;;;;;;;5012341;28;20428;-73
2023/06/14 01:43:05;;;;;;;9.63;4.38;;;;;;;;;;5011847;28;20636;-73
2023/06/14 01:45:30;;;;;;;8.30;4.88;;;;;;;;;;5012318;28;20382;-73
2023/06/14 01:47:56;;;;;;;8.90;4.90;;;;;;;;;;5012125;28;20061;-73
2023/06/14 01:50:21;;;;;;;7.82;5.03;;;;;;;;;;5010611;28;20049;-73
2023/06/14 01:52:47;;;;;;;7.50;4.88;;;;;;;;;;5013348;28;20033;-73
2023/06/14 01:55:12;;;;;;;8.68;5.07;;;;;;;;;;5013284;28;20052;-73
2023/06/14 01:57:37;;;;;;;8.38;5.22;;;;;;;;;;5011937;28;20053;-73
2023/06/14 02:00:12;;;;;;;10.88;5.45;;;;;;;;;;5012854;28;20417;-73
2023/06/14 02:02:38;;;;;;;6.65;4.90;;;;;;;;;;5013020;28;20060;-73
2023/06/14 02:05:04;;;;;;;12.40;4.95;;;;;;;;;;5013147;28;20034;-73
2023/06/14 02:07:29;;;;;;;7.22;4.65;;;;;;;;;;5013034;28;20030;-73
2023/06/14 02:09:54;;;;;;;9.98;5.40;;;;;;;;;;5013268;28;20513;-73
2023/06/14 02:12:20;;;;;;;6.97;4.50;;;;;;;;;;5011516;28;20052;-73
2023/06/14 02:14:45;;;;;;;10.13;5.18;;;;;;;;;;5012500;28;20040;-73
2023/06/14 02:17:10;;;;;;;7.40;4.68;;;;;;;;;;5011948;28;20032;-73
2023/06/14 02:19:36;;;;;;;11.70;5.03;;;;;;;;;;5012957;28;20048;-73
2023/06/14 02:22:01;;;;;;;8.63;4.95;;;;;;;;;;5012911;28;20125;-73
2023/06/14 02:24:26;;;;;;;10.13;4.70;;;;;;;;;;5012864;28;20158;-73
2023/06/14 02:26:52;;;;;;;7.20;4.72;;;;;;;;;;5012817;28;20049;-72
2023/06/14 02:29:17;;;;;;;6.75;4.40;;;;;;;;;;5012891;28;20034;-73
2023/06/14 02:31:42;;;;;;;13.00;5.20;;;;;;;;;;5013142;28;20034;-73
2023/06/14 02:34:08;;;;;;;7.57;4.93;;;;;;;;;;5013929;28;20041;-73
2023/06/14 02:36:34;;;;;;;7.93;5.15;;;;;;;;;;5012981;28;20522;-73
2023/06/14 02:39:00;;;;;;;8.63;4.55;;;;;;;;;;5012150;28;20042;-73
2023/06/14 02:41:25;;;;;;;7.20;5.03;;;;;;;;;;5016244;28;20073;-73
2023/06/14 02:43:51;;;;;;;6.20;4.10;;;;;;;;;;5016493;28;20355;-73
2023/06/14 02:46:16;;;;;;;9.75;5.10;;;;;;;;;;5016487;28;20052;-73
2023/06/14 02:48:42;;;;;;;13.85;5.10;;;;;;;;;;4998650;28;20474;-73
2023/06/14 02:51:09;;;;;;;12.85;4.90;;;;;;;;;;5015013;28;20443;-73
2023/06/14 02:53:35;;;;;;;10.00;4.80;;;;;;;;;;5016100;28;20040;-73
2023/06/14 02:56:01;;;;;;;10.27;5.15;;;;;;;;;;5015066;28;20045;-73
2023/06/14 02:58:26;;;;;;;8.38;4.85;;;;;;;;;;5015805;28;20054;-73
2023/06/14 03:00:54;;;;;;;8.60;4.68;;;;;;;;;;5016041;28;20093;-72
2023/06/14 03:03:21;;;;;;;8.38;4.53;;;;;;;;;;5014844;28;20034;-73
2023/06/14 03:05:49;;;;;;;6.65;4.30;;;;;;;;;;5015773;28;20030;-73
2023/06/14 03:08:16;;;;;;;6.82;4.07;;;;;;;;;;5014697;28;20029;-73
2023/06/14 03:10:43;;;;;;;10.02;4.57;;;;;;;;;;5005805;28;20045;-72
2023/06/14 03:13:08;;;;;;;12.15;4.40;;;;;;;;;;5014664;28;20041;-73
2023/06/14 03:15:34;;;;;;;10.65;5.05;;;;;;;;;;5016007;28;20033;-73
2023/06/14 03:17:59;;;;;;;8.65;4.68;;;;;;;;;;5015609;28;20038;-73
2023/06/14 03:20:29;;;;;;;10.77;4.10;;;;;;;;;;5016107;28;20030;-73
2023/06/14 03:22:55;;;;;;;10.50;4.38;;;;;;;;;;5007130;28;20034;-73
2023/06/14 03:25:21;;;;;;;10.23;4.45;;;;;;;;;;5015588;28;20391;-73
2023/06/14 03:27:47;;;;;;;10.13;4.32;;;;;;;;;;5015594;28;20038;-73
2023/06/14 03:30:13;;;;;;;8.35;4.10;;;;;;;;;;5015592;28;20033;-72
2023/06/14 03:32:38;;;;;;;9.05;4.38;;;;;;;;;;5015460;28;20044;-73
2023/06/14 03:35:04;;;;;;;9.65;3.92;;;;;;;;;;5013311;28;20022;-73
2023/06/14 03:37:29;;;;;;;10.68;3.80;;;;;;;;;;5014754;28;20121;-72
2023/06/14 03:39:54;;;;;;;6.63;3.63;;;;;;;;;;5015298;28;20045;-73
2023/06/14 03:42:20;;;;;;;7.60;3.97;;;;;;;;;;5012787;28;20533;-72
2023/06/14 03:44:45;;;;;;;6.28;3.78;;;;;;;;;;5015470;28;20116;-73
2023/06/14 03:47:10;;;;;;;9.00;3.63;;;;;;;;;;5013821;28;20046;-73
2023/06/14 03:49:36;;;;;;;6.97;3.53;;;;;;;;;;5014492;28;20044;-72
2023/06/14 03:52:02;;;;;;;7.13;3.40;;;;;;;;;;5014185;28;20029;-73
2023/06/14 03:54:28;;;;;;;6.15;3.22;;;;;;;;;;5014937;28;20492;-73
2023/06/14 03:56:53;;;;;;;12.52;3.97;;;;;;;;;;5015179;28;20038;-72
2023/06/14 03:59:19;;;;;;;8.02;3.28;;;;;;;;;;5015237;28;20103;-73
2023/06/14 04:01:46;;;;;;;7.18;3.03;;;;;;;;;;5014945;28;20470;-73
2023/06/14 04:04:12;;;;;;;8.00;3.30;;;;;;;;;;5014531;28;20045;-73
2023/06/14 04:06:37;;;;;;;7.40;3.00;;;;;;;;;;5013581;28;20037;-73
2023/06/14 04:09:02;;;;;;;4.90;3.40;;;;;;;;;;5014772;28;20367;-73
2023/06/14 04:11:28;;;;;;;4.88;3.35;;;;;;;;;;5014889;28;20502;-72
2023/06/14 04:13:56;;;;;;;6.70;3.63;;;;;;;;;;5013879;28;20030;-73
2023/06/14 04:16:21;;;;;;;6.32;3.25;;;;;;;;;;5007152;28;20044;-73
2023/06/14 04:18:48;;;;;;;7.43;3.65;;;;;;;;;;5013399;28;20223;-73
2023/06/14 04:21:13;;;;;;;6.90;3.17;;;;;;;;;;5013268;28;20038;-73
2023/06/14 04:23:38;;;;;;;6.95;3.17;;;;;;;;;;5014350;28;20099;-73
2023/06/14 04:26:04;;;;;;;6.30;2.90;;;;;;;;;;5012891;28;20053;-73
2023/06/14 04:28:29;;;;;;;6.68;3.15;;;;;;;;;;5014624;28;20057;-73
2023/06/14 04:30:55;;;;;;;4.65;2.83;;;;;;;;;;5013327;28;20044;-73
2023/06/14 04:33:20;;;;;;;7.75;2.60;;;;;;;;;;5014396;28;20072;-72
2023/06/14 04:35:47;;;;;;;5.07;2.72;;;;;;;;;;5014499;28;20034;-73
2023/06/14 04:38:12;;;;;;;5.57;3.17;;;;;;;;;;5014156;28;20038;-73
2023/06/14 04:40:42;;;;;;;8.32;3.03;;;;;;;;;;5013191;28;20033;-73
2023/06/14 04:43:17;;;;;;;4.57;2.53;;;;;;;;;;5014145;28;20065;-73
2023/06/14 04:45:45;;;;;;;4.28;2.70;;;;;;;;;;5012701;28;20033;-72
2023/06/14 04:48:10;;;;;;;5.45;2.38;;;;;;;;;;5014165;28;20030;-72
2023/06/14 04:50:35;;;;;;;5.35;2.67;;;;;;;;;;5012835;28;20124;-72
2023/06/14 04:53:01;;;;;;;4.10;2.50;;;;;;;;;;5012889;28;20034;-73
2023/06/14 04:55:26;;;;;;;6.47;2.40;;;;;;;;;;5014167;28;20038;-73
2023/06/14 04:57:53;;;;;;;3.75;2.10;;;;;;;;;;5013874;28;20053;-73
2023/06/14 05:00:19;;;;;;;5.07;2.33;;;;;;;;;;5013746;28;20107;-73
2023/06/14 05:02:46;;;;;;;3.72;2.05;;;;;;;;;;5012601;28;20026;-73
2023/06/14 05:05:12;;;;;;;4.80;2.38;;;;;;;;;;5013727;28;20038;-73
2023/06/14 05:07:37;;;;;;;5.63;2.28;;;;;;;;;;5012522;28;20103;-73
2023/06/14 05:10:03;;;;;;;3.50;2.10;;;;;;;;;;5013766;28;20034;-73
2023/06/14 05:12:29;;;;;;;4.35;2.47;;;;;;;;;;5013500;28;20459;-73
2023/06/14 05:14:54;;;;;;;3.70;2.28;;;;;;;;;;5013565;28;20090;-73
2023/06/14 05:17:20;;;;;;;3.65;2.42;;;;;;;;;;5013830;28;20072;-73
2023/06/14 05:19:46;;;;;;;5.20;2.05;;;;;;;;;;5013594;28;20045;-73
2023/06/14 05:22:11;;;;;;;4.20;2.08;;;;;;;;;;5013647;28;20033;-73
2023/06/14 05:24:37;;;;;;;3.83;1.98;;;;;;;;;;5013429;28;20104;-73
2023/06/14 05:27:03;;;;;;;5.80;2.13;;;;;;;;;;5013487;28;20029;-73
2023/06/14 05:29:28;;;;;;;4.75;1.90;;;;;;;;;;5013220;28;20059;-73
2023/06/14 05:31:53;;;;;;;9.73;2.13;;;;;;;;;;5012123;28;20056;-73
2023/06/14 05:34:18;;;;;;;7.53;2.20;;;;;;;;;;5012347;28;20099;-73
2023/06/14 05:36:44;;;;;;;3.78;2.00;;;;;;;;;;5013570;28;20108;-73
2023/06/14 05:39:10;;;;;;;6.22;1.90;;;;;;;;;;5013644;28;20480;-73
2023/06/14 05:41:35;;;;;;;5.53;2.05;;;;;;;;;;5013435;28;20079;-71
2023/06/14 05:44:01;;;;;;;4.78;2.75;;;;;;;;;;5013261;28;20061;-71
2023/06/14 05:46:26;;;;;;;3.53;1.75;;;;;;;;;;5012247;28;20044;-71
2023/06/14 05:48:52;;;;;;;4.18;1.95;;;;;;;;;;5013159;28;20121;-71
2023/06/14 05:51:20;;;;;;;2.83;1.70;;;;;;;;;;5012493;28;20085;-72
2023/06/14 05:53:46;;;;;;;4.32;2.17;;;;;;;;;;5012165;28;20061;-72
2023/06/14 05:56:12;;;;;;;6.00;1.98;;;;;;;;;;5012180;28;20050;-72
2023/06/14 05:58:37;;;;;;;3.45;1.70;;;;;;;;;;5010957;28;20119;-72
2023/06/14 06:01:03;;;;;;;6.43;2.33;;;;;;;;;;5013636;28;20112;-72
2023/06/14 06:03:29;;;;;;;4.78;2.08;;;;;;;;;;5011575;28;20492;-72
2023/06/14 06:05:55;;;;;;;2.97;1.90;;;;;;;;;;5013118;28;20025;-72
2023/06/14 06:08:20;;;;;;;4.20;1.85;;;;;;;;;;5017339;28;20453;-72
2023/06/14 06:10:46;;;;;;;6.35;2.42;;;;;;;;;;5018493;28;20040;-72
2023/06/14 06:13:11;;;;;;;6.32;1.80;;;;;;;;;;5013235;28;20038;-72
2023/06/14 06:15:36;;;;;;;5.47;2.10;;;;;;;;;;5015600;28;20240;-73
2023/06/14 06:18:02;;;;;;;5.07;1.80;;;;;;;;;;5015583;28;20045;-72
2023/06/14 06:20:28;;;;;;;6.13;2.00;;;;;;;;;;5017291;28;20038;-74
2023/06/14 06:22:54;;;;;;;3.80;1.80;;;;;;;;;;5016881;28;20104;-72
2023/06/14 06:25:19;;;;;;;6.82;2.17;;;;;;;;;;5015280;28;20486;-72
2023/06/14 06:27:45;;;;;;;3.90;1.95;;;;;;;;;;5016658;28;20061;-74
2023/06/14 06:30:11;;;;;;;5.00;1.83;;;;;;;;;;5016397;28;20489;-72
2023/06/14 06:32:36;;;;;;;6.15;2.30;;;;;;;;;;5016382;28;20044;-71
2023/06/14 06:35:02;;;;;;;4.75;2.13;;;;;;;;;;5015112;28;20030;-71
2023/06/14 06:37:27;;;;;;;3.15;1.67;;;;;;;;;;5015227;28;20034;-71
2023/06/14 06:39:53;;;;;;;10.98;2.20;;;;;;;;;;5016032;28;20037;-71
2023/06/14 06:42:18;;;;;;;6.47;2.00;;;;;;;;;;5016401;28;20132;-71
2023/06/14 06:44:43;;;;;;;7.10;2.05;;;;;;;;;;5016405;28;20401;-71
2023/06/14 06:47:11;;;;;;;5.78;2.42;;;;;;;;;;5015980;28;20513;-71
2023/06/14 06:49:36;;;;;;;5.00;2.25;;;;;;;;;;5016270;28;20470;-71
2023/06/14 06:52:06;;;;;;;6.88;2.00;;;;;;;;;;5016204;28;20040;-71
2023/06/14 06:54:31;;;;;;;5.25;2.60;;;;;;;;;;5014857;28;20546;-71
2023/06/14 06:56:57;;;;;;;5.97;2.25;;;;;;;;;;5016147;28;20104;-71
2023/06/14 06:59:23;;;;;;;3.97;1.88;;;;;;;;;;5014409;28;20112;-71
2023/06/14 07:01:49;;;;;;;6.35;2.22;;;;;;;;;;4998315;28;20069;-72
2023/06/14 07:04:14;;;;;;;5.90;2.20;;;;;;;;;;5016112;28;20462;-72
2023/06/14 07:06:41;;;;;;;6.85;2.20;;;;;;;;;;5015924;28;20022;-72
2023/06/14 07:09:12;;;;;;;7.15;2.15;;;;;;;;;;5015943;28;20026;-71
2023/06/14 07:11:37;;;;;;;5.45;2.17;;;;;;;;;;5015901;28;20025;-72
2023/06/14 07:14:02;;;;;;;4.80;1.88;;;;;;;;;;5014622;28;20040;-71
2023/06/14 07:16:28;;;;;;;4.78;2.08;;;;;;;;;;5015844;28;20516;-72
2023/06/14 07:18:53;;;;;;;7.53;2.30;;;;;;;;;;5015425;28;20042;-72
2023/06/14 07:21:18;;;;;;;5.55;2.10;;;;;;;;;;5013617;28;20088;-72
2023/06/14 07:23:44;;;;;;;4.53;2.10;;;;;;;;;;5015441;28;20072;-72
2023/06/14 07:26:09;;;;;;;9.48;2.20;;;;;;;;;;5014230;28;20371;-71
2023/06/14 07:28:35;;;;;;;5.53;1.95;;;;;;;;;;5015718;28;20044;-72
2023/06/14 07:31:01;;;;;;;4.93;2.00;;;;;;;;;;5010172;28;20091;-71
2023/06/14 07:33:26;;;;;;;5.20;2.03;;;;;;;;;;5015455;28;20029;-72
2023/06/14 07:35:52;;;;;;;3.85;1.63;;;;;;;;;;5015543;28;20433;-71
2023/06/14 07:38:18;;;;;;;5.30;2.17;;;;;;;;;;5003324;28;20105;-71
2023/06/14 07:40:43;;;;;;;3.65;1.77;;;;;;;;;;5013690;28;20057;-72
2023/06/14 07:43:08;;;;;;;4.65;1.98;;;;;;;;;;4999729;28;20040;-72
2023/06/14 07:45:34;;;;;;;6.28;2.08;;;;;;;;;;5011930;28;20041;-72
2023/06/14 07:47:59;;;;;;;4.50;1.80;;;;;;;;;;5005245;28;20038;-72
2023/06/14 07:50:25;;;;;;;7.68;2.40;;;;;;;;;;5015128;28;20030;-72
2023/06/14 07:52:51;;;;;;;5.63;2.80;;;;;;;;;;5012723;28;20456;-72
2023/06/14 07:55:16;;;;;;;6.57;1.90;;;;;;;;;;4998501;28;20140;-72
2023/06/14 07:57:44;;;;;;;3.95;2.17;;;;;;;;;;5012286;28;20053;-72
2023/06/14 08:00:14;;;;;;;5.40;1.85;;;;;;;;;;5011501;28;20034;-72
2023/06/14 08:02:41;;;;;;;7.28;2.45;;;;;;;;;;5012228;28;20555;-72
2023/06/14 08:05:09;;;;;;;6.60;2.40;;;;;;;;;;5010725;28;20038;-72
2023/06/14 08:07:38;;;;;;;5.30;1.95;;;;;;;;;;5012956;28;20037;-72
2023/06/14 08:10:05;;;;;;;4.35;2.10;;;;;;;;;;5012574;28;20095;-72
2023/06/14 08:12:31;;;;;;;6.28;2.40;;;;;;;;;;5012274;28;20064;-72
2023/06/14 08:14:57;;;;;;;4.95;2.35;;;;;;;;;;5011796;28;20084;-72
2023/06/14 08:17:23;;;;;;;4.47;2.20;;;;;;;;;;5011787;28;20029;-72
2023/06/14 08:19:50;;;;;;;7.05;2.08;;;;;;;;;;5011835;28;20036;-72
2023/06/14 08:22:17;;;;;;;5.80;2.28;;;;;;;;;;5012278;28;20088;-72
2023/06/14 08:24:44;;;;;;;4.13;2.00;;;;;;;;;;5011816;28;20029;-73
2023/06/14 08:27:09;;;;;;;7.80;2.15;;;;;;;;;;5012435;28;20028;-72
2023/06/14 08:29:40;;;;;;;7.00;2.17;;;;;;;;;;5006949;28;20545;-72
2023/06/14 08:32:08;;;;;;;5.53;2.13;;;;;;;;;;5011651;28;20033;-73
2023/06/14 08:34:37;;;;;;;4.57;1.92;;;;;;;;;;5012402;28;20030;-73
2023/06/14 08:37:04;;;;;;;6.05;2.33;;;;;;;;;;5009016;28;20034;-73
2023/06/14 08:39:30;;;;;;;7.00;2.03;;;;;;;;;;5011921;28;20037;-73
2023/06/14 08:41:57;;;;;;;4.07;2.10;;;;;;;;;;5012066;28;20139;-73
2023/06/14 08:44:23;;;;;;;7.75;2.10;;;;;;;;;;5010492;28;20034;-73
2023/06/14 08:46:49;;;;;;;3.85;1.90;;;;;;;;;;5009820;28;20493;-73
2023/06/14 08:49:16;;;;;;;4.25;2.00;;;;;;;;;;5011235;28;20080;-72
2023/06/14 08:51:43;;;;;;;5.00;1.77;;;;;;;;;;5011712;28;20589;-72
2023/06/14 08:54:10;;;;;;;7.18;2.30;;;;;;;;;;5011630;28;20083;-72
2023/06/14 08:56:37;;;;;;;6.13;2.30;;;;;;;;;;5010081;28;20022;-72
2023/06/14 08:59:06;;;;;;;7.93;2.15;;;;;;;;;;5011542;28;20057;-72
2023/06/14 09:01:36;;;;;;;3.85;2.10;;;;;;;;;;5010389;28;20034;-72
2023/06/14 09:04:02;;;;;;;4.75;1.90;;;;;;;;;;5006425;28;20052;-72
2023/06/14 09:06:28;;;;;;;6.68;2.17;;;;;;;;;;5010163;28;20046;-72
2023/06/14 09:08:56;;;;;;;4.03;2.22;;;;;;;;;;5004025;28;20052;-72
2023/06/14 09:11:22;;;;;;;7.90;2.20;;;;;;;;;;5008099;28;20489;-72
2023/06/14 09:13:48;;;;;;;4.25;1.98;;;;;;;;;;5009203;28;20128;-72
2023/06/14 09:16:14;;;;;;;4.15;2.10;;;;;;;;;;5007398;28;20496;-72
2023/06/14 09:18:49;;;;;;;7.07;2.13;;;;;;;;;;5010782;28;20060;-73
2023/06/14 09:21:17;;;;;;;3.92;1.80;;;;;;;;;;5009013;28;20045;-73
2023/06/14 09:23:45;;;;;;;3.92;2.20;;;;;;;;;;4996468;28;20905;-73
2023/06/14 09:26:20;;;;;;;5.57;2.08;;;;;;;;;;5006151;28;20441;-73
2023/06/14 09:28:51;;;;;;;5.25;2.15;;;;;;;;;;4971033;28;20164;-73
2023/06/14 09:31:19;;;;;;;8.80;2.37;;;;;;;;;;5007932;28;20030;-72
2023/06/14 09:33:49;;;;;;;5.28;2.08;;;;;;;;;;5007454;28;20041;-72
2023/06/14 09:36:21;;;;;;;5.95;2.10;;;;;;;;;;4999608;28;20066;-72
2023/06/14 09:39:09;;;;;;;9.93;2.30;;;;;;;;;;5006564;28;20053;-73
2023/06/14 09:41:42;;;;;;;5.20;2.20;;;;;;;;;;5001265;28;20900;-73
2023/06/14 09:44:09;;;;;;;3.78;2.30;;;;;;;;;;5007765;28;20041;-73
2023/06/14 09:46:35;;;;;;;8.20;2.60;;;;;;;;;;5006096;28;20088;-72
2023/06/14 09:49:02;;;;;;;6.40;2.08;;;;;;;;;;5009240;28;20032;-72
2023/06/14 09:51:31;;;;;;;5.35;2.38;;;;;;;;;;5012466;28;20137;-71
2023/06/14 09:54:04;;;;;;;5.22;2.08;;;;;;;;;;5013349;28;20141;-71
2023/06/14 09:56:30;;;;;;;4.97;2.25;;;;;;;;;;5012984;28;20037;-72
2023/06/14 09:58:57;;;;;;;7.70;2.53;;;;;;;;;;5014067;28;20085;-72
2023/06/14 10:01:25;;;;;;;5.28;2.20;;;;;;;;;;5012440;28;20045;-72
2023/06/14 10:03:56;;;;;;;4.22;2.05;;;;;;;;;;5013849;28;20123;-72
2023/06/14 10:06:24;;;;;;;4.43;2.30;;;;;;;;;;5012314;28;20045;-71
2023/06/14 10:08:51;;;;;;;4.15;2.13;;;;;;;;;;5012757;28;20109;-71
2023/06/14 10:11:17;;;;;;;5.57;2.55;;;;;;;;;;5012633;28;20041;-71
2023/06/14 10:13:42;;;;;;;4.88;2.45;;;;;;;;;;5013274;28;20092;-71
2023/06/14 10:16:17;;;;;;;4.68;2.20;;;;;;;;;;5013443;28;20381;-72
2023/06/14 10:18:47;;;;;;;6.68;1.92;;;;;;;;;;5012174;28;20472;-71
2023/06/14 10:21:18;;;;;;;6.75;2.30;;;;;;;;;;5013217;28;20105;-72
2023/06/14 10:23:45;;;;;;;4.40;2.28;;;;;;;;;;5011858;28;20038;-72
2023/06/14 10:26:19;;;;;;;6.40;2.20;;;;;;;;;;5013777;28;20036;-72
2023/06/14 10:28:59;;;;;;;5.25;2.25;;;;;;;;;;5012387;28;20042;-72
2023/06/14 10:31:46;;;;;;;6.18;2.10;;;;;;;;;;5012120;28;20044;-72
2023/06/14 10:34:12;;;;;;;4.30;1.90;;;;;;;;;;4998336;28;20217;-71
2023/06/14 10:36:42;;;;;;;6.00;2.20;;;;;;;;;;5011332;28;20487;-72
2023/06/14 10:39:15;;;;;;;4.68;1.98;;;;;;;;;;5010447;28;20092;-71
2023/06/14 10:41:41;;;;;;;6.75;2.13;;;;;;;;;;5011033;28;20500;-71
2023/06/14 10:44:12;;;;;;;3.85;1.88;;;;;;;;;;5012515;28;20042;-71
2023/06/14 10:46:45;;;;;;;4.35;2.47;;;;;;;;;;5012903;28;20054;-71
2023/06/14 10:49:11;;;;;;;6.53;2.20;;;;;;;;;;5011600;28;20037;-71
2023/06/14 10:51:46;;;;;;;5.07;2.10;;;;;;;;;;5011679;28;20038;-71
2023/06/14 10:54:20;;;;;;;4.80;2.50;;;;;;;;;;5010847;28;20453;-73
2023/06/14 10:56:50;;;;;;;9.85;2.10;;;;;;;;;;5012877;28;20038;-73
2023/06/14 10:59:16;;;;;;;4.95;1.95;;;;;;;;;;5011649;28;20116;-73
2023/06/14 11:02:21;;;;;;;3.83;2.00;;;;;;;;;;5009531;28;20068;-73
2023/06/14 11:04:48;;;;;;;4.70;2.08;;;;;;;;;;5011669;28;20038;-72
2023/06/14 11:07:58;;;;;;;4.72;1.88;;;;;;;;;;5011137;28;20046;-73
2023/06/14 11:10:37;;;;;;;3.58;1.90;;;;;;;;;;5007805;28;20034;-73
2023/06/14 11:13:03;;;;;;;5.40;2.13;;;;;;;;;;5001000;28;20052;-73
2023/06/14 11:15:33;;;;;;;3.45;1.90;;;;;;;;;;4996617;28;20053;-73
2023/06/14 11:18:05;;;;;;;6.95;1.98;;;;;;;;;;5011630;28;20060;-73
2023/06/14 11:20:33;;;;;;;7.18;2.22;;;;;;;;;;5011984;28;20050;-73
2023/06/14 11:22:59;;;;;;;6.05;2.03;;;;;;;;;;5011993;28;20125;-73
2023/06/14 11:25:25;;;;;;;5.32;1.80;;;;;;;;;;5010872;28;20159;-73
2023/06/14 11:27:50;;;;;;;8.65;2.15;;;;;;;;;;5008632;28;20038;-73
2023/06/14 11:30:16;;;;;;;9.05;2.00;;;;;;;;;;5014001;28;20041;-73
2023/06/14 11:32:42;;;;;;;5.50;1.90;;;;;;;;;;5013635;28;20568;-73
2023/06/14 11:35:09;;;;;;;5.55;1.95;;;;;;;;;;5015026;28;20042;-73
2023/06/14 11:37:37;;;;;;;4.55;2.45;;;;;;;;;;5013703;28;20042;-72
2023/06/14 11:40:08;;;;;;;3.30;1.65;;;;;;;;;;5013437;28;20040;-73
2023/06/14 11:42:33;;;;;;;5.13;1.65;;;;;;;;;;5014251;28;20502;-72
2023/06/14 11:44:59;;;;;;;5.72;1.83;;;;;;;;;;4994175;28;20043;-70
2023/06/14 11:47:24;;;;;;;6.05;1.95;;;;;;;;;;5008982;28;20458;-71
2023/06/14 11:49:50;;;;;;;7.18;2.00;;;;;;;;;;5014807;28;20042;-70
2023/06/14 11:52:16;;;;;;;4.22;1.80;;;;;;;;;;5010433;28;20037;-72
2023/06/14 11:54:42;;;;;;;6.55;2.25;;;;;;;;;;5034591;28;20038;-72
2023/06/14 11:57:07;;;;;;;6.43;2.00;;;;;;;;;;5008674;28;20037;-72
2023/06/14 11:59:44;;;;;;;3.63;2.10;;;;;;;;;;5013015;28;20038;-73
2023/06/14 12:02:10;;;;;;;2.30;1.40;;;;;;;;;;5003151;28;20053;-73
2023/06/14 12:04:35;;;;;;;4.90;1.95;;;;;;;;;;5014773;28;20041;-73
2023/06/14 12:07:17;;;;;;;3.95;1.80;;;;;;;;;;5012581;28;20373;-73
2023/06/14 12:10:05;;;;;;;7.20;2.00;;;;;;;;;;5007741;28;20064;-72
2023/06/14 12:12:31;;;;;;;5.63;2.20;;;;;;;;;;5009758;28;20042;-72
2023/06/14 12:14:56;;;;;;;4.53;1.80;;;;;;;;;;5014010;28;20038;-72
2023/06/14 12:17:21;;;;;;;4.63;2.13;;;;;;;;;;5013622;28;20470;-73
2023/06/14 12:19:49;;;;;;;5.85;1.88;;;;;;;;;;5013168;28;20030;-72
2023/06/14 12:22:14;;;;;;;7.95;2.30;;;;;;;;;;5009774;28;20060;-72
2023/06/14 12:24:42;;;;;;;5.80;1.90;;;;;;;;;;5009001;28;20470;-72
2023/06/14 12:27:08;;;;;;;9.65;2.10;;;;;;;;;;5007477;28;20040;-72
2023/06/14 12:29:33;;;;;;;8.00;2.10;;;;;;;;;;5009164;28;20035;-73
2023/06/14 12:31:59;;;;;;;6.32;2.58;;;;;;;;;;5012192;28;20466;-72
2023/06/14 12:34:26;;;;;;;3.47;1.73;;;;;;;;;;5013863;28;20037;-72
2023/06/14 12:36:53;;;;;;;3.65;2.00;;;;;;;;;;4995707;28;20359;-72
2023/06/14 12:39:18;;;;;;;6.40;2.45;;;;;;;;;;5012602;28;20030;-72
2023/06/14 12:41:44;;;;;;;6.43;2.05;;;;;;;;;;5013716;28;20073;-73
2023/06/14 12:44:12;;;;;;;5.82;2.20;;;;;;;;;;5013733;28;20069;-72
2023/06/14 12:46:39;;;;;;;5.30;2.13;;;;;;;;;;4995927;28;20030;-72
2023/06/14 12:49:06;;;;;;;4.10;2.20;;;;;;;;;;5012459;28;20037;-73
2023/06/14 12:51:31;;;;;;;7.65;2.13;;;;;;;;;;4991866;28;20513;-73
2023/06/14 12:53:57;;;;;;;4.95;2.15;;;;;;;;;;5008919;28;20112;-73
2023/06/14 12:56:22;;;;;;;5.38;2.13;;;;;;;;;;5004752;28;20030;-72
2023/06/14 12:58:47;;;;;;;4.78;2.13;;;;;;;;;;5007117;28;20108;-73
2023/06/14 13:01:13;;;;;;;4.55;1.95;;;;;;;;;;5006428;28;20030;-73
2023/06/14 13:03:38;;;;;;;6.75;2.45;;;;;;;;;;5013329;28;20060;-73
2023/06/14 13:06:04;;;;;;;5.00;2.10;;;;;;;;;;5013414;28;20386;-73
2023/06/14 13:08:30;;;;;;;4.65;2.10;;;;;;;;;;5013326;28;20480;-73
2023/06/14 13:10:55;;;;;;;5.68;1.95;;;;;;;;;;5013634;28;20090;-72
2023/06/14 13:13:21;;;;;;;5.90;2.28;;;;;;;;;;5011670;28;20180;-72
2023/06/14 13:15:46;;;;;;;6.57;2.40;;;;;;;;;;5013490;28;20413;-70
2023/06/14 13:18:15;;;;;;;6.57;2.40;;;;;;;;;;5013134;28;20389;-70
2023/06/14 13:20:41;;;;;;;8.73;2.55;;;;;;;;;;5012091;28;20124;-70
2023/06/14 13:23:07;;;;;;;8.40;2.55;;;;;;;;;;5012912;28;20113;-70
2023/06/14 13:25:36;;;;;;;6.60;2.45;;;;;;;;;;5012112;28;20029;-70
2023/06/14 13:28:03;;;;;;;4.63;2.50;;;;;;;;;;5013226;28;20029;-71
2023/06/14 13:30:28;;;;;;;3.75;2.15;;;;;;;;;;5013057;28;20433;-70
2023/06/14 13:32:53;;;;;;;5.22;2.17;;;;;;;;;;5013066;28;20025;-70
2023/06/14 13:35:19;;;;;;;5.13;2.60;;;;;;;;;;5013163;28;20092;-71
2023/06/14 13:37:45;;;;;;;5.80;3.00;;;;;;;;;;5012894;28;20393;-70
2023/06/14 13:40:11;;;;;;;6.95;2.90;;;;;;;;;;5013164;28;20041;-71
2023/06/14 13:42:37;;;;;;;8.43;3.50;;;;;;;;;;5013007;28;20053;-73
2023/06/14 13:45:03;;;;;;;7.30;3.17;;;;;;;;;;5006294;28;20382;-71
2023/06/14 13:47:29;;;;;;;7.28;2.80;;;;;;;;;;5012946;28;20034;-70
2023/06/14 13:49:55;;;;;;;7.50;3.08;;;;;;;;;;5012614;28;20674;-70
2023/06/14 13:52:20;;;;;;;8.40;2.92;;;;;;;;;;5012947;28;20036;-70
2023/06/14 13:54:46;;;;;;;8.10;2.70;;;;;;;;;;5012946;28;20030;-70
2023/06/14 13:57:13;;;;;;;5.40;2.47;;;;;;;;;;5011588;28;20386;-72
2023/06/14 13:59:39;;;;;;;4.88;2.65;;;;;;;;;;5013127;28;20034;-72
2023/06/14 14:02:06;;;;;;;6.57;2.65;;;;;;;;;;5011659;28;20042;-72
2023/06/14 14:04:32;;;;;;;6.10;2.75;;;;;;;;;;5011459;28;20084;-71
2023/06/14 14:06:57;;;;;;;3.97;2.35;;;;;;;;;;5011251;28;20525;-71
2023/06/14 14:09:22;;;;;;;4.60;2.65;;;;;;;;;;5012470;28;20037;-71
2023/06/14 14:11:48;;;;;;;5.65;3.20;;;;;;;;;;5010816;28;20132;-71
2023/06/14 14:14:14;;;;;;;9.63;2.97;;;;;;;;;;5012497;28;20233;-71
2023/06/14 14:16:39;;;;;;;9.10;2.80;;;;;;;;;;5011281;28;20470;-70
2023/06/14 14:19:06;;;;;;;7.60;2.70;;;;;;;;;;5012621;28;20050;-71
2023/06/14 14:21:31;;;;;;;10.30;2.85;;;;;;;;;;5012650;28;20383;-72
2023/06/14 14:23:57;;;;;;;8.32;2.95;;;;;;;;;;5012744;28;20114;-70
2023/06/14 14:26:23;;;;;;;6.65;2.72;;;;;;;;;;5011510;28;20049;-71
2023/06/14 14:28:48;;;;;;;6.15;2.80;;;;;;;;;;5012460;28;20066;-71
2023/06/14 14:31:14;;;;;;;7.47;2.63;;;;;;;;;;5012573;28;20066;-70
2023/06/14 14:33:39;;;;;;;8.73;2.60;;;;;;;;;;5012528;28;20394;-71
2023/06/14 14:36:06;;;;;;;5.50;2.75;;;;;;;;;;5015899;28;20466;-72
2023/06/14 14:38:32;;;;;;;7.03;2.45;;;;;;;;;;5016226;28;20066;-72